Accueil
METAR-TAF:

METAR-TAF

Aéroports :

Aéroport international Minangkabau

Padang, Indonésie

latitude: 00-47-12S, longitude: 100-16-50E, altitude: 5 m

Observation

Le bulletin a été fait il y a 30 minutes, à 20:00 UTC
Vent 3 kt de nord
Température 26°C
Humidité 89%
Pression 1007 hPa
Visibilité 10 km ou plus
Quelques nuages à une hauteur de 2000 ft

METAR: WIEE 242000Z 35003KT 9999 FEW020 26/24 Q1007 NOSIG

Heure: 03:30 (20:30 UTC)

Prévision

Le bulletin a été fait il y a 3 heures et 30 minutes, à 17:00 UTC
Prévision valable du 24 à 18 UTC au 25 à 18 UTC
Vent 3 kt de ouest
Visibilité 10 km ou plus
Nuages épars à une hauteur de 2000 ft

TAF: WIEE 241700Z 2418/2518 28003KT 9999 SCT020

Observations et prévisions météorologiques de plus de 4000 aéroports (messages METAR et TAF).

Les stations disponibles sont représentées par des disques jaunes et rouges sur la carte.

Passer la souris dessus pour voir le nom de la station.

Cliquer dessus pour voir les observations et prévisions météorologiques.

Pour changer de carte: cliquez sur les boutons verts avec une croix noire pour zoomer, sur le bouton vert avec un tiret pour effectuer un zoom arrière, ou sur les flèches vertes pour les cartes adjacentes.


METAR-TAF: